sensor_id;sensor_type;location;lat;lon;timestamp;P1;durP1;ratioP1;P2;durP2;ratioP2
789;SDS011;378;48.844;9.156;2023-08-20T00:01:28;9.02;;;6.40;;
789;SDS011;378;48.844;9.156;2023-08-20T00:03:56;10.38;;;6.35;;
789;SDS011;378;48.844;9.156;2023-08-20T00:06:24;11.88;;;6.75;;
789;SDS011;378;48.844;9.156;2023-08-20T00:08:52;9.65;;;6.30;;
789;SDS011;378;48.844;9.156;2023-08-20T00:11:19;9.77;;;6.72;;
789;SDS011;378;48.844;9.156;2023-08-20T00:13:46;9.82;;;6.13;;
789;SDS011;378;48.844;9.156;2023-08-20T00:16:13;11.52;;;5.85;;
789;SDS011;378;48.844;9.156;2023-08-20T00:18:41;8.82;;;5.95;;
789;SDS011;378;48.844;9.156;2023-08-20T00:21:08;14.25;;;7.18;;
789;SDS011;378;48.844;9.156;2023-08-20T00:23:35;8.30;;;6.18;;
789;SDS011;378;48.844;9.156;2023-08-20T00:26:05;10.13;;;6.63;;
789;SDS011;378;48.844;9.156;2023-08-20T00:28:32;12.48;;;7.85;;
789;SDS011;378;48.844;9.156;2023-08-20T00:30:59;13.90;;;8.10;;
789;SDS011;378;48.844;9.156;2023-08-20T00:33:27;15.00;;;6.95;;
789;SDS011;378;48.844;9.156;2023-08-20T00:35:54;9.65;;;6.85;;
789;SDS011;378;48.844;9.156;2023-08-20T00:38:21;9.13;;;6.32;;
789;SDS011;378;48.844;9.156;2023-08-20T00:40:48;12.38;;;7.20;;
789;SDS011;378;48.844;9.156;2023-08-20T00:43:16;11.38;;;7.47;;
789;SDS011;378;48.844;9.156;2023-08-20T00:45:43;14.13;;;7.32;;
789;SDS011;378;48.844;9.156;2023-08-20T00:48:10;8.77;;;6.88;;
789;SDS011;378;48.844;9.156;2023-08-20T00:50:38;14.80;;;7.43;;
789;SDS011;378;48.844;9.156;2023-08-20T00:53:05;11.27;;;7.07;;
789;SDS011;378;48.844;9.156;2023-08-20T00:55:34;10.60;;;6.85;;
789;SDS011;378;48.844;9.156;2023-08-20T00:58:02;12.90;;;7.88;;
789;SDS011;378;48.844;9.156;2023-08-20T01:00:31;12.07;;;7.47;;
789;SDS011;378;48.844;9.156;2023-08-20T01:02:58;10.77;;;7.47;;
789;SDS011;378;48.844;9.156;2023-08-20T01:05:24;9.45;;;6.95;;
789;SDS011;378;48.844;9.156;2023-08-20T01:07:58;8.55;;;6.82;;
789;SDS011;378;48.844;9.156;2023-08-20T01:10:39;13.75;;;7.78;;
789;SDS011;378;48.844;9.156;2023-08-20T01:13:08;13.77;;;7.05;;
789;SDS011;378;48.844;9.156;2023-08-20T01:15:37;11.93;;;7.45;;
789;SDS011;378;48.844;9.156;2023-08-20T01:18:04;11.15;;;8.02;;
789;SDS011;378;48.844;9.156;2023-08-20T01:20:33;18.52;;;9.05;;
789;SDS011;378;48.844;9.156;2023-08-20T01:25:57;12.15;;;7.00;;
789;SDS011;378;48.844;9.156;2023-08-20T01:28:50;10.32;;;7.63;;
789;SDS011;378;48.844;9.156;2023-08-20T01:31:17;13.07;;;7.47;;
789;SDS011;378;48.844;9.156;2023-08-20T01:33:46;10.18;;;6.70;;
789;SDS011;378;48.844;9.156;2023-08-20T01:36:12;13.30;;;7.82;;
789;SDS011;378;48.844;9.156;2023-08-20T01:38:39;11.07;;;7.30;;
789;SDS011;378;48.844;9.156;2023-08-20T01:41:06;13.15;;;8.77;;
789;SDS011;378;48.844;9.156;2023-08-20T01:43:33;15.13;;;7.97;;
789;SDS011;378;48.844;9.156;2023-08-20T01:46:01;10.75;;;7.45;;
789;SDS011;378;48.844;9.156;2023-08-20T01:48:28;9.25;;;6.55;;
789;SDS011;378;48.844;9.156;2023-08-20T01:50:55;9.35;;;7.43;;
789;SDS011;378;48.844;9.156;2023-08-20T01:53:22;13.75;;;7.90;;
789;SDS011;378;48.844;9.156;2023-08-20T01:55:48;11.32;;;7.70;;
789;SDS011;378;48.844;9.156;2023-08-20T01:58:15;11.85;;;7.25;;
789;SDS011;378;48.844;9.156;2023-08-20T02:00:42;11.77;;;7.93;;
789;SDS011;378;48.844;9.156;2023-08-20T02:03:12;10.75;;;7.20;;
789;SDS011;378;48.844;9.156;2023-08-20T02:05:39;9.73;;;7.55;;
789;SDS011;378;48.844;9.156;2023-08-20T02:08:05;11.50;;;7.85;;
789;SDS011;378;48.844;9.156;2023-08-20T02:10:32;11.63;;;8.10;;
789;SDS011;378;48.844;9.156;2023-08-20T02:12:59;10.02;;;7.50;;
789;SDS011;378;48.844;9.156;2023-08-20T02:15:26;10.32;;;6.95;;
789;SDS011;378;48.844;9.156;2023-08-20T02:17:53;10.20;;;7.75;;
789;SDS011;378;48.844;9.156;2023-08-20T02:20:21;10.20;;;7.45;;
789;SDS011;378;48.844;9.156;2023-08-20T02:22:49;12.68;;;8.15;;
789;SDS011;378;48.844;9.156;2023-08-20T02:25:17;13.05;;;8.15;;
789;SDS011;378;48.844;9.156;2023-08-20T02:27:43;13.10;;;7.80;;
789;SDS011;378;48.844;9.156;2023-08-20T02:30:11;10.93;;;7.43;;
789;SDS011;378;48.844;9.156;2023-08-20T02:32:39;12.15;;;7.68;;
789;SDS011;378;48.844;9.156;2023-08-20T02:35:10;12.00;;;7.40;;
789;SDS011;378;48.844;9.156;2023-08-20T02:37:39;12.93;;;8.48;;
789;SDS011;378;48.844;9.156;2023-08-20T02:40:07;9.13;;;7.05;;
789;SDS011;378;48.844;9.156;2023-08-20T02:42:38;9.15;;;7.28;;
789;SDS011;378;48.844;9.156;2023-08-20T02:45:05;10.70;;;8.13;;
789;SDS011;378;48.844;9.156;2023-08-20T02:47:37;15.15;;;7.30;;
789;SDS011;378;48.844;9.156;2023-08-20T02:50:29;13.63;;;8.57;;
789;SDS011;378;48.844;9.156;2023-08-20T02:53:13;12.60;;;8.30;;
789;SDS011;378;48.844;9.156;2023-08-20T02:55:39;13.40;;;7.78;;
789;SDS011;378;48.844;9.156;2023-08-20T02:58:08;12.60;;;9.35;;
789;SDS011;378;48.844;9.156;2023-08-20T03:00:35;13.98;;;9.63;;
789;SDS011;378;48.844;9.156;2023-08-20T03:03:02;14.48;;;9.48;;
789;SDS011;378;48.844;9.156;2023-08-20T03:05:32;17.80;;;10.13;;
789;SDS011;378;48.844;9.156;2023-08-20T03:08:43;16.73;;;9.50;;
789;SDS011;378;48.844;9.156;2023-08-20T03:11:02;17.83;;;10.18;;
789;SDS011;378;48.844;9.156;2023-08-20T03:13:45;11.25;;;8.80;;
789;SDS011;378;48.844;9.156;2023-08-20T03:20:16;12.50;;;8.60;;
789;SDS011;378;48.844;9.156;2023-08-20T03:22:47;11.77;;;7.97;;
789;SDS011;378;48.844;9.156;2023-08-20T03:25:16;14.48;;;9.18;;
789;SDS011;378;48.844;9.156;2023-08-20T03:27:43;13.30;;;8.68;;
789;SDS011;378;48.844;9.156;2023-08-20T03:30:10;12.23;;;8.60;;
789;SDS011;378;48.844;9.156;2023-08-20T03:32:37;15.73;;;9.35;;
789;SDS011;378;48.844;9.156;2023-08-20T03:35:04;14.52;;;8.63;;
789;SDS011;378;48.844;9.156;2023-08-20T03:37:32;13.60;;;8.32;;
789;SDS011;378;48.844;9.156;2023-08-20T03:39:58;12.30;;;8.43;;
789;SDS011;378;48.844;9.156;2023-08-20T03:42:27;11.75;;;8.10;;
789;SDS011;378;48.844;9.156;2023-08-20T03:44:53;18.80;;;8.90;;
789;SDS011;378;48.844;9.156;2023-08-20T03:47:20;12.52;;;8.20;;
789;SDS011;378;48.844;9.156;2023-08-20T03:49:47;14.65;;;8.65;;
789;SDS011;378;48.844;9.156;2023-08-20T03:52:14;12.05;;;8.48;;
789;SDS011;378;48.844;9.156;2023-08-20T03:54:41;12.23;;;8.10;;
789;SDS011;378;48.844;9.156;2023-08-20T03:57:08;11.50;;;8.95;;
789;SDS011;378;48.844;9.156;2023-08-20T03:59:36;11.95;;;8.73;;
789;SDS011;378;48.844;9.156;2023-08-20T04:02:03;11.13;;;8.25;;
789;SDS011;378;48.844;9.156;2023-08-20T04:04:30;12.95;;;8.82;;
789;SDS011;378;48.844;9.156;2023-08-20T04:06:57;14.30;;;8.48;;
789;SDS011;378;48.844;9.156;2023-08-20T04:09:24;11.95;;;9.00;;
789;SDS011;378;48.844;9.156;2023-08-20T04:11:50;14.13;;;8.80;;
789;SDS011;378;48.844;9.156;2023-08-20T04:14:17;14.32;;;8.43;;
789;SDS011;378;48.844;9.156;2023-08-20T04:16:45;12.35;;;8.10;;
789;SDS011;378;48.844;9.156;2023-08-20T04:19:12;11.18;;;8.35;;
789;SDS011;378;48.844;9.156;2023-08-20T04:21:39;9.00;;;7.47;;
789;SDS011;378;48.844;9.156;2023-08-20T04:24:06;15.52;;;8.93;;
789;SDS011;378;48.844;9.156;2023-08-20T04:26:33;13.40;;;8.65;;
789;SDS011;378;48.844;9.156;2023-08-20T04:28:59;11.55;;;8.40;;
789;SDS011;378;48.844;9.156;2023-08-20T04:31:26;12.25;;;8.23;;
789;SDS011;378;48.844;9.156;2023-08-20T04:33:54;11.43;;;8.20;;
789;SDS011;378;48.844;9.156;2023-08-20T04:36:21;15.45;;;8.82;;
789;SDS011;378;48.844;9.156;2023-08-20T04:38:48;15.82;;;8.70;;
789;SDS011;378;48.844;9.156;2023-08-20T04:41:15;14.52;;;9.25;;
789;SDS011;378;48.844;9.156;2023-08-20T04:43:42;14.35;;;9.43;;
789;SDS011;378;48.844;9.156;2023-08-20T04:46:08;12.77;;;8.45;;
789;SDS011;378;48.844;9.156;2023-08-20T04:48:35;13.43;;;8.85;;
789;SDS011;378;48.844;9.156;2023-08-20T04:51:05;15.10;;;8.80;;
789;SDS011;378;48.844;9.156;2023-08-20T04:53:32;15.30;;;9.23;;
789;SDS011;378;48.844;9.156;2023-08-20T04:55:58;12.43;;;9.05;;
789;SDS011;378;48.844;9.156;2023-08-20T04:58:25;11.25;;;8.15;;
789;SDS011;378;48.844;9.156;2023-08-20T05:00:52;12.77;;;8.85;;
789;SDS011;378;48.844;9.156;2023-08-20T05:03:19;11.45;;;8.80;;
789;SDS011;378;48.844;9.156;2023-08-20T05:05:48;15.60;;;8.48;;
789;SDS011;378;48.844;9.156;2023-08-20T05:08:16;13.18;;;9.57;;
789;SDS011;378;48.844;9.156;2023-08-20T05:10:43;12.57;;;8.85;;
789;SDS011;378;48.844;9.156;2023-08-20T05:13:10;19.13;;;11.60;;
789;SDS011;378;48.844;9.156;2023-08-20T05:15:37;13.93;;;9.98;;
789;SDS011;378;48.844;9.156;2023-08-20T05:18:03;10.27;;;8.40;;
789;SDS011;378;48.844;9.156;2023-08-20T05:20:30;16.67;;;8.68;;
789;SDS011;378;48.844;9.156;2023-08-20T05:22:57;12.73;;;8.20;;
789;SDS011;378;48.844;9.156;2023-08-20T05:25:25;12.93;;;8.52;;
789;SDS011;378;48.844;9.156;2023-08-20T05:27:52;11.48;;;8.90;;
789;SDS011;378;48.844;9.156;2023-08-20T05:30:19;14.25;;;9.02;;
789;SDS011;378;48.844;9.156;2023-08-20T05:32:46;10.82;;;8.68;;
789;SDS011;378;48.844;9.156;2023-08-20T05:35:13;15.27;;;8.75;;
789;SDS011;378;48.844;9.156;2023-08-20T05:37:40;13.05;;;9.77;;
789;SDS011;378;48.844;9.156;2023-08-20T05:40:07;12.95;;;8.27;;
789;SDS011;378;48.844;9.156;2023-08-20T05:42:36;13.00;;;8.75;;
789;SDS011;378;48.844;9.156;2023-08-20T05:45:03;12.27;;;9.32;;
789;SDS011;378;48.844;9.156;2023-08-20T05:47:30;15.82;;;10.35;;
789;SDS011;378;48.844;9.156;2023-08-20T05:49:57;14.02;;;9.75;;
789;SDS011;378;48.844;9.156;2023-08-20T05:52:24;16.98;;;9.95;;
789;SDS011;378;48.844;9.156;2023-08-20T05:54:50;10.70;;;8.60;;
789;SDS011;378;48.844;9.156;2023-08-20T05:57:17;14.45;;;10.50;;
789;SDS011;378;48.844;9.156;2023-08-20T05:59:45;11.77;;;8.55;;
789;SDS011;378;48.844;9.156;2023-08-20T06:02:15;10.57;;;8.18;;
789;SDS011;378;48.844;9.156;2023-08-20T06:04:43;15.57;;;8.95;;
789;SDS011;378;48.844;9.156;2023-08-20T06:07:10;15.70;;;10.20;;
789;SDS011;378;48.844;9.156;2023-08-20T06:09:36;16.45;;;9.82;;
789;SDS011;378;48.844;9.156;2023-08-20T06:12:03;15.63;;;8.80;;
789;SDS011;378;48.844;9.156;2023-08-20T06:14:30;15.68;;;10.60;;
789;SDS011;378;48.844;9.156;2023-08-20T06:16:59;14.55;;;10.02;;
789;SDS011;378;48.844;9.156;2023-08-20T06:19:25;14.60;;;8.82;;
789;SDS011;378;48.844;9.156;2023-08-20T06:21:52;14.05;;;8.90;;
789;SDS011;378;48.844;9.156;2023-08-20T06:24:19;12.73;;;8.55;;
789;SDS011;378;48.844;9.156;2023-08-20T06:26:46;14.65;;;8.48;;
789;SDS011;378;48.844;9.156;2023-08-20T06:29:12;12.35;;;8.10;;
789;SDS011;378;48.844;9.156;2023-08-20T06:31:39;14.98;;;9.00;;
789;SDS011;378;48.844;9.156;2023-08-20T06:34:08;9.70;;;7.65;;
789;SDS011;378;48.844;9.156;2023-08-20T06:36:34;10.88;;;8.68;;
789;SDS011;378;48.844;9.156;2023-08-20T06:39:01;10.50;;;7.55;;
789;SDS011;378;48.844;9.156;2023-08-20T06:41:28;13.43;;;8.70;;
789;SDS011;378;48.844;9.156;2023-08-20T06:43:55;12.75;;;8.65;;
789;SDS011;378;48.844;9.156;2023-08-20T06:46:22;12.27;;;7.80;;
789;SDS011;378;48.844;9.156;2023-08-20T06:48:49;14.80;;;9.20;;
789;SDS011;378;48.844;9.156;2023-08-20T06:51:19;20.65;;;11.65;;
789;SDS011;378;48.844;9.156;2023-08-20T06:53:46;40.50;;;13.43;;
789;SDS011;378;48.844;9.156;2023-08-20T06:56:13;24.38;;;11.68;;
789;SDS011;378;48.844;9.156;2023-08-20T06:58:40;13.93;;;9.50;;
789;SDS011;378;48.844;9.156;2023-08-20T07:01:08;15.18;;;9.75;;
789;SDS011;378;48.844;9.156;2023-08-20T07:03:37;11.23;;;8.23;;
789;SDS011;378;48.844;9.156;2023-08-20T07:06:05;12.20;;;8.63;;
789;SDS011;378;48.844;9.156;2023-08-20T07:08:35;22.98;;;12.38;;
789;SDS011;378;48.844;9.156;2023-08-20T07:11:03;17.42;;;12.30;;
789;SDS011;378;48.844;9.156;2023-08-20T07:13:30;13.23;;;9.30;;
789;SDS011;378;48.844;9.156;2023-08-20T07:15:57;11.70;;;8.77;;
789;SDS011;378;48.844;9.156;2023-08-20T07:18:24;12.95;;;9.63;;
789;SDS011;378;48.844;9.156;2023-08-20T07:20:51;15.15;;;11.13;;
789;SDS011;378;48.844;9.156;2023-08-20T07:23:18;17.25;;;10.25;;
789;SDS011;378;48.844;9.156;2023-08-20T07:25:46;18.88;;;11.63;;
789;SDS011;378;48.844;9.156;2023-08-20T07:28:13;16.20;;;11.25;;
789;SDS011;378;48.844;9.156;2023-08-20T07:30:46;15.00;;;10.07;;
789;SDS011;378;48.844;9.156;2023-08-20T07:33:13;12.20;;;9.10;;
789;SDS011;378;48.844;9.156;2023-08-20T07:35:39;20.27;;;12.95;;
789;SDS011;378;48.844;9.156;2023-08-20T07:38:06;16.15;;;9.82;;
789;SDS011;378;48.844;9.156;2023-08-20T07:40:33;12.90;;;9.20;;
789;SDS011;378;48.844;9.156;2023-08-20T07:43:01;13.13;;;8.38;;
789;SDS011;378;48.844;9.156;2023-08-20T07:45:28;14.02;;;9.48;;
789;SDS011;378;48.844;9.156;2023-08-20T07:47:55;19.70;;;10.57;;
789;SDS011;378;48.844;9.156;2023-08-20T07:50:22;18.90;;;10.75;;
789;SDS011;378;48.844;9.156;2023-08-20T07:52:49;12.88;;;8.20;;
789;SDS011;378;48.844;9.156;2023-08-20T07:55:15;10.50;;;8.00;;
789;SDS011;378;48.844;9.156;2023-08-20T07:57:42;10.40;;;7.28;;
789;SDS011;378;48.844;9.156;2023-08-20T08:00:12;14.27;;;9.48;;
789;SDS011;378;48.844;9.156;2023-08-20T08:02:40;19.40;;;11.93;;
789;SDS011;378;48.844;9.156;2023-08-20T08:05:07;15.52;;;8.57;;
789;SDS011;378;48.844;9.156;2023-08-20T08:07:34;15.40;;;10.25;;
789;SDS011;378;48.844;9.156;2023-08-20T08:10:01;19.55;;;12.23;;
789;SDS011;378;48.844;9.156;2023-08-20T08:12:28;20.25;;;12.50;;
789;SDS011;378;48.844;9.156;2023-08-20T08:14:55;23.65;;;13.00;;
789;SDS011;378;48.844;9.156;2023-08-20T08:17:23;12.50;;;8.57;;
789;SDS011;378;48.844;9.156;2023-08-20T08:19:50;14.73;;;8.68;;
789;SDS011;378;48.844;9.156;2023-08-20T08:22:18;15.88;;;10.23;;
789;SDS011;378;48.844;9.156;2023-08-20T08:24:45;16.40;;;10.88;;
789;SDS011;378;48.844;9.156;2023-08-20T08:27:12;17.15;;;10.45;;
789;SDS011;378;48.844;9.156;2023-08-20T08:29:39;14.02;;;8.45;;
789;SDS011;378;48.844;9.156;2023-08-20T08:32:06;16.63;;;8.85;;
789;SDS011;378;48.844;9.156;2023-08-20T08:34:34;18.77;;;11.35;;
789;SDS011;378;48.844;9.156;2023-08-20T08:37:01;17.75;;;11.38;;
789;SDS011;378;48.844;9.156;2023-08-20T08:39:28;15.35;;;9.73;;
789;SDS011;378;48.844;9.156;2023-08-20T08:41:55;16.63;;;9.40;;
789;SDS011;378;48.844;9.156;2023-08-20T08:44:28;18.30;;;9.82;;
789;SDS011;378;48.844;9.156;2023-08-20T08:46:57;14.57;;;10.02;;
789;SDS011;378;48.844;9.156;2023-08-20T08:49:24;15.45;;;9.30;;
789;SDS011;378;48.844;9.156;2023-08-20T08:51:53;17.40;;;10.65;;
789;SDS011;378;48.844;9.156;2023-08-20T08:54:23;15.57;;;11.25;;
789;SDS011;378;48.844;9.156;2023-08-20T08:56:50;12.68;;;9.05;;
789;SDS011;378;48.844;9.156;2023-08-20T08:59:17;11.05;;;8.18;;
789;SDS011;378;48.844;9.156;2023-08-20T09:01:44;10.15;;;7.50;;
789;SDS011;378;48.844;9.156;2023-08-20T09:04:11;8.93;;;7.40;;
789;SDS011;378;48.844;9.156;2023-08-20T09:06:44;17.00;;;10.52;;
789;SDS011;378;48.844;9.156;2023-08-20T09:09:13;18.05;;;9.63;;
789;SDS011;378;48.844;9.156;2023-08-20T09:11:40;10.82;;;8.40;;
789;SDS011;378;48.844;9.156;2023-08-20T09:14:07;8.35;;;7.10;;
789;SDS011;378;48.844;9.156;2023-08-20T09:16:34;12.32;;;8.68;;
789;SDS011;378;48.844;9.156;2023-08-20T09:19:01;12.98;;;8.80;;
789;SDS011;378;48.844;9.156;2023-08-20T09:21:29;10.68;;;8.00;;
789;SDS011;378;48.844;9.156;2023-08-20T09:23:56;10.52;;;7.78;;
789;SDS011;378;48.844;9.156;2023-08-20T09:26:24;9.40;;;7.10;;
789;SDS011;378;48.844;9.156;2023-08-20T09:28:53;8.98;;;7.20;;
789;SDS011;378;48.844;9.156;2023-08-20T09:31:21;9.15;;;6.85;;
789;SDS011;378;48.844;9.156;2023-08-20T09:34:04;8.82;;;6.75;;
789;SDS011;378;48.844;9.156;2023-08-20T09:36:33;10.30;;;6.97;;
789;SDS011;378;48.844;9.156;2023-08-20T09:39:00;9.07;;;6.53;;
789;SDS011;378;48.844;9.156;2023-08-20T09:41:29;7.15;;;6.45;;
789;SDS011;378;48.844;9.156;2023-08-20T09:43:57;11.80;;;7.47;;
789;SDS011;378;48.844;9.156;2023-08-20T09:46:25;11.77;;;7.35;;
789;SDS011;378;48.844;9.156;2023-08-20T09:48:54;8.23;;;6.82;;
789;SDS011;378;48.844;9.156;2023-08-20T09:51:24;13.20;;;8.10;;
789;SDS011;378;48.844;9.156;2023-08-20T09:53:54;13.85;;;8.00;;
789;SDS011;378;48.844;9.156;2023-08-20T09:56:27;12.45;;;7.75;;
789;SDS011;378;48.844;9.156;2023-08-20T09:58:56;14.73;;;8.40;;
789;SDS011;378;48.844;9.156;2023-08-20T10:01:24;9.10;;;7.05;;
789;SDS011;378;48.844;9.156;2023-08-20T10:03:51;11.25;;;7.53;;
789;SDS011;378;48.844;9.156;2023-08-20T10:06:18;17.00;;;7.82;;
789;SDS011;378;48.844;9.156;2023-08-20T10:08:46;14.60;;;7.68;;
789;SDS011;378;48.844;9.156;2023-08-20T10:11:14;10.00;;;6.75;;
789;SDS011;378;48.844;9.156;2023-08-20T10:13:41;15.05;;;8.88;;
789;SDS011;378;48.844;9.156;2023-08-20T10:16:09;11.23;;;7.65;;
789;SDS011;378;48.844;9.156;2023-08-20T10:18:38;10.40;;;6.90;;
789;SDS011;378;48.844;9.156;2023-08-20T10:21:05;10.63;;;7.15;;
789;SDS011;378;48.844;9.156;2023-08-20T10:23:34;15.88;;;7.80;;
789;SDS011;378;48.844;9.156;2023-08-20T10:26:06;9.45;;;6.80;;
789;SDS011;378;48.844;9.156;2023-08-20T10:28:34;8.52;;;6.30;;
789;SDS011;378;48.844;9.156;2023-08-20T10:31:07;10.30;;;6.63;;
789;SDS011;378;48.844;9.156;2023-08-20T10:33:37;10.43;;;6.95;;
789;SDS011;378;48.844;9.156;2023-08-20T10:36:08;16.10;;;7.07;;
789;SDS011;378;48.844;9.156;2023-08-20T10:38:39;9.88;;;6.93;;
789;SDS011;378;48.844;9.156;2023-08-20T10:41:06;9.30;;;6.63;;
789;SDS011;378;48.844;9.156;2023-08-20T10:43:34;9.55;;;6.97;;
789;SDS011;378;48.844;9.156;2023-08-20T10:46:06;11.25;;;6.65;;
789;SDS011;378;48.844;9.156;2023-08-20T10:48:42;9.38;;;6.30;;
789;SDS011;378;48.844;9.156;2023-08-20T10:51:10;11.65;;;6.28;;
789;SDS011;378;48.844;9.156;2023-08-20T10:53:38;13.10;;;6.63;;
789;SDS011;378;48.844;9.156;2023-08-20T10:56:12;12.07;;;6.53;;
789;SDS011;378;48.844;9.156;2023-08-20T10:58:43;7.00;;;5.82;;
789;SDS011;378;48.844;9.156;2023-08-20T11:01:20;10.45;;;5.97;;
789;SDS011;378;48.844;9.156;2023-08-20T11:03:48;8.23;;;5.63;;
789;SDS011;378;48.844;9.156;2023-08-20T11:06:16;10.07;;;5.65;;
789;SDS011;378;48.844;9.156;2023-08-20T11:08:44;11.48;;;6.57;;
789;SDS011;378;48.844;9.156;2023-08-20T11:11:11;8.23;;;5.82;;
789;SDS011;378;48.844;9.156;2023-08-20T11:13:38;7.05;;;5.40;;
789;SDS011;378;48.844;9.156;2023-08-20T11:16:05;10.80;;;6.30;;
789;SDS011;378;48.844;9.156;2023-08-20T11:18:35;14.05;;;6.47;;
789;SDS011;378;48.844;9.156;2023-08-20T11:21:02;9.45;;;6.30;;
789;SDS011;378;48.844;9.156;2023-08-20T11:23:29;10.00;;;5.97;;
789;SDS011;378;48.844;9.156;2023-08-20T11:25:56;8.45;;;6.00;;
789;SDS011;378;48.844;9.156;2023-08-20T11:28:25;9.95;;;6.32;;
789;SDS011;378;48.844;9.156;2023-08-20T11:30:53;8.68;;;5.50;;
789;SDS011;378;48.844;9.156;2023-08-20T11:33:21;9.85;;;6.07;;
789;SDS011;378;48.844;9.156;2023-08-20T11:35:49;10.77;;;6.30;;
789;SDS011;378;48.844;9.156;2023-08-20T11:38:17;8.68;;;5.70;;
789;SDS011;378;48.844;9.156;2023-08-20T11:40:44;11.65;;;5.82;;
789;SDS011;378;48.844;9.156;2023-08-20T11:43:11;7.90;;;5.40;;
789;SDS011;378;48.844;9.156;2023-08-20T11:45:44;7.38;;;5.53;;
789;SDS011;378;48.844;9.156;2023-08-20T11:48:12;15.52;;;5.45;;
789;SDS011;378;48.844;9.156;2023-08-20T11:50:39;6.60;;;5.22;;
789;SDS011;378;48.844;9.156;2023-08-20T11:53:08;7.78;;;5.82;;
789;SDS011;378;48.844;9.156;2023-08-20T11:55:35;6.35;;;4.88;;
789;SDS011;378;48.844;9.156;2023-08-20T11:58:04;5.68;;;4.38;;
789;SDS011;378;48.844;9.156;2023-08-20T12:00:31;7.68;;;4.78;;
789;SDS011;378;48.844;9.156;2023-08-20T12:02:58;8.43;;;4.82;;
789;SDS011;378;48.844;9.156;2023-08-20T12:05:28;8.55;;;4.78;;
789;SDS011;378;48.844;9.156;2023-08-20T12:07:56;12.77;;;6.57;;
789;SDS011;378;48.844;9.156;2023-08-20T12:10:25;9.85;;;4.93;;
789;SDS011;378;48.844;9.156;2023-08-20T12:12:53;7.57;;;4.90;;
789;SDS011;378;48.844;9.156;2023-08-20T12:15:21;5.38;;;4.40;;
789;SDS011;378;48.844;9.156;2023-08-20T12:17:55;7.13;;;5.05;;
789;SDS011;378;48.844;9.156;2023-08-20T12:20:23;8.82;;;5.28;;
789;SDS011;378;48.844;9.156;2023-08-20T12:22:52;8.05;;;5.00;;
789;SDS011;378;48.844;9.156;2023-08-20T12:25:18;8.98;;;5.18;;
789;SDS011;378;48.844;9.156;2023-08-20T12:27:46;6.90;;;5.10;;
789;SDS011;378;48.844;9.156;2023-08-20T12:30:13;12.82;;;5.40;;
789;SDS011;378;48.844;9.156;2023-08-20T12:32:40;8.90;;;5.15;;
789;SDS011;378;48.844;9.156;2023-08-20T12:35:07;10.57;;;5.15;;
789;SDS011;378;48.844;9.156;2023-08-20T12:37:37;7.20;;;4.88;;
789;SDS011;378;48.844;9.156;2023-08-20T12:40:04;7.05;;;4.65;;
789;SDS011;378;48.844;9.156;2023-08-20T12:42:35;10.02;;;6.00;;
789;SDS011;378;48.844;9.156;2023-08-20T12:45:05;9.95;;;5.18;;
789;SDS011;378;48.844;9.156;2023-08-20T12:47:32;10.20;;;5.05;;
789;SDS011;378;48.844;9.156;2023-08-20T12:49:59;9.60;;;5.57;;
789;SDS011;378;48.844;9.156;2023-08-20T12:52:26;6.20;;;4.50;;
789;SDS011;378;48.844;9.156;2023-08-20T12:54:53;7.65;;;4.85;;
789;SDS011;378;48.844;9.156;2023-08-20T12:57:19;7.53;;;5.25;;
789;SDS011;378;48.844;9.156;2023-08-20T12:59:46;6.75;;;5.15;;
789;SDS011;378;48.844;9.156;2023-08-20T13:02:14;7.40;;;4.80;;
789;SDS011;378;48.844;9.156;2023-08-20T13:04:42;6.75;;;4.55;;
789;SDS011;378;48.844;9.156;2023-08-20T13:07:09;9.13;;;4.85;;
789;SDS011;378;48.844;9.156;2023-08-20T13:09:36;7.78;;;5.10;;
789;SDS011;378;48.844;9.156;2023-08-20T13:12:04;6.25;;;4.72;;
789;SDS011;378;48.844;9.156;2023-08-20T13:14:35;7.80;;;5.85;;
789;SDS011;378;48.844;9.156;2023-08-20T13:17:02;7.80;;;5.72;;
789;SDS011;378;48.844;9.156;2023-08-20T13:19:31;9.00;;;5.72;;
789;SDS011;378;48.844;9.156;2023-08-20T13:21:58;8.48;;;5.38;;
789;SDS011;378;48.844;9.156;2023-08-20T13:24:25;8.45;;;5.60;;
789;SDS011;378;48.844;9.156;2023-08-20T13:26:52;9.98;;;5.35;;
789;SDS011;378;48.844;9.156;2023-08-20T13:29:18;11.93;;;5.28;;
789;SDS011;378;48.844;9.156;2023-08-20T13:31:45;8.45;;;5.18;;
789;SDS011;378;48.844;9.156;2023-08-20T13:34:12;10.05;;;5.38;;
789;SDS011;378;48.844;9.156;2023-08-20T13:36:40;7.55;;;5.18;;
789;SDS011;378;48.844;9.156;2023-08-20T13:39:07;11.55;;;5.70;;
789;SDS011;378;48.844;9.156;2023-08-20T13:41:34;7.45;;;5.35;;
789;SDS011;378;48.844;9.156;2023-08-20T13:44:01;9.48;;;5.90;;
789;SDS011;378;48.844;9.156;2023-08-20T13:46:28;8.15;;;5.00;;
789;SDS011;378;48.844;9.156;2023-08-20T13:48:56;8.32;;;5.03;;
789;SDS011;378;48.844;9.156;2023-08-20T13:51:23;8.15;;;4.93;;
789;SDS011;378;48.844;9.156;2023-08-20T13:53:51;11.60;;;5.18;;
789;SDS011;378;48.844;9.156;2023-08-20T13:56:18;10.50;;;5.57;;
789;SDS011;378;48.844;9.156;2023-08-20T13:58:45;9.10;;;4.93;;
789;SDS011;378;48.844;9.156;2023-08-20T14:01:12;7.50;;;4.55;;
789;SDS011;378;48.844;9.156;2023-08-20T14:03:39;6.82;;;4.90;;
789;SDS011;378;48.844;9.156;2023-08-20T14:06:06;8.95;;;4.88;;
789;SDS011;378;48.844;9.156;2023-08-20T14:08:33;11.27;;;5.32;;
789;SDS011;378;48.844;9.156;2023-08-20T14:11:01;11.80;;;5.15;;
789;SDS011;378;48.844;9.156;2023-08-20T14:13:28;7.30;;;4.72;;
789;SDS011;378;48.844;9.156;2023-08-20T14:15:55;8.27;;;4.72;;
789;SDS011;378;48.844;9.156;2023-08-20T14:18:21;6.20;;;4.70;;
789;SDS011;378;48.844;9.156;2023-08-20T14:20:48;6.43;;;4.65;;
789;SDS011;378;48.844;9.156;2023-08-20T14:23:15;6.32;;;4.57;;
789;SDS011;378;48.844;9.156;2023-08-20T14:25:42;4.60;;;4.10;;
789;SDS011;378;48.844;9.156;2023-08-20T14:28:10;8.60;;;4.22;;
789;SDS011;378;48.844;9.156;2023-08-20T14:30:37;9.70;;;4.70;;
789;SDS011;378;48.844;9.156;2023-08-20T14:33:05;8.40;;;4.88;;
789;SDS011;378;48.844;9.156;2023-08-20T14:35:32;10.73;;;4.50;;
789;SDS011;378;48.844;9.156;2023-08-20T14:37:59;8.88;;;4.38;;
789;SDS011;378;48.844;9.156;2023-08-20T14:40:26;11.10;;;4.13;;
789;SDS011;378;48.844;9.156;2023-08-20T14:42:52;8.00;;;4.35;;
789;SDS011;378;48.844;9.156;2023-08-20T14:45:21;7.90;;;4.20;;
789;SDS011;378;48.844;9.156;2023-08-20T14:47:48;7.35;;;4.18;;
789;SDS011;378;48.844;9.156;2023-08-20T14:50:15;6.80;;;4.40;;
789;SDS011;378;48.844;9.156;2023-08-20T14:52:41;6.70;;;4.00;;
789;SDS011;378;48.844;9.156;2023-08-20T14:55:08;7.38;;;3.63;;
789;SDS011;378;48.844;9.156;2023-08-20T14:57:35;8.20;;;3.92;;
789;SDS011;378;48.844;9.156;2023-08-20T15:00:03;10.02;;;4.13;;
789;SDS011;378;48.844;9.156;2023-08-20T15:02:35;4.95;;;4.00;;
789;SDS011;378;48.844;9.156;2023-08-20T15:05:02;7.75;;;3.83;;
789;SDS011;378;48.844;9.156;2023-08-20T15:07:29;10.05;;;4.07;;
789;SDS011;378;48.844;9.156;2023-08-20T15:09:56;6.75;;;3.75;;
789;SDS011;378;48.844;9.156;2023-08-20T15:12:23;7.03;;;3.47;;
789;SDS011;378;48.844;9.156;2023-08-20T15:14:49;3.90;;;3.50;;
789;SDS011;378;48.844;9.156;2023-08-20T15:17:17;8.95;;;3.53;;
789;SDS011;378;48.844;9.156;2023-08-20T15:19:45;7.68;;;3.95;;
789;SDS011;378;48.844;9.156;2023-08-20T15:22:13;6.80;;;3.92;;
789;SDS011;378;48.844;9.156;2023-08-20T15:24:40;4.75;;;3.42;;
789;SDS011;378;48.844;9.156;2023-08-20T15:27:07;4.07;;;3.50;;
789;SDS011;378;48.844;9.156;2023-08-20T15:29:34;6.35;;;3.70;;
789;SDS011;378;48.844;9.156;2023-08-20T15:32:00;7.65;;;3.65;;
789;SDS011;378;48.844;9.156;2023-08-20T15:34:29;6.13;;;3.72;;
789;SDS011;378;48.844;9.156;2023-08-20T15:36:57;9.32;;;5.45;;
789;SDS011;378;48.844;9.156;2023-08-20T15:39:24;15.80;;;6.05;;
789;SDS011;378;48.844;9.156;2023-08-20T15:41:52;9.90;;;5.95;;
789;SDS011;378;48.844;9.156;2023-08-20T15:44:18;7.70;;;4.90;;
789;SDS011;378;48.844;9.156;2023-08-20T15:46:45;10.25;;;4.45;;